createdAt,value
2022-07-29T00:01:03.200Z,1.80
2022-07-29T00:03:30.127Z,1.65
2022-07-29T00:05:57.129Z,1.80
2022-07-29T00:08:24.193Z,1.90
2022-07-29T00:10:52.412Z,2.13
2022-07-29T00:13:19.392Z,2.15
2022-07-29T00:16:04.649Z,1.90
2022-07-29T00:18:32.902Z,2.28
2022-07-29T00:21:00.027Z,2.15
2022-07-29T00:23:26.972Z,2.25
2022-07-29T00:25:53.812Z,2.00
2022-07-29T00:28:20.835Z,2.15
2022-07-29T00:30:47.717Z,2.33
2022-07-29T00:33:14.688Z,2.10
2022-07-29T00:35:44.486Z,2.30
2022-07-29T00:38:13.593Z,2.10
2022-07-29T00:40:43.239Z,2.30
2022-07-29T00:43:12.977Z,2.22
2022-07-29T00:45:40.217Z,2.38
2022-07-29T00:48:09.597Z,2.17
2022-07-29T00:50:37.899Z,2.50
2022-07-29T00:53:07.974Z,2.28
2022-07-29T00:55:35.805Z,2.10
2022-07-29T00:58:02.926Z,2.33
2022-07-29T01:00:32.190Z,2.28
2022-07-29T01:02:59.374Z,1.92
2022-07-29T01:05:48.065Z,1.92
2022-07-29T01:08:17.086Z,1.95
2022-07-29T01:10:46.206Z,2.22
2022-07-29T01:13:14.135Z,2.53
2022-07-29T01:16:10.823Z,2.47
2022-07-29T01:18:43.708Z,2.35
2022-07-29T01:24:38.424Z,2.08
2022-07-29T01:27:23.851Z,2.22
2022-07-29T01:29:58.224Z,2.00
2022-07-29T01:32:30.207Z,2.78
2022-07-29T01:35:26.227Z,2.40
2022-07-29T01:38:12.315Z,2.40
2022-07-29T01:40:49.115Z,2.30
2022-07-29T01:43:22.422Z,2.15
2022-07-29T01:45:56.166Z,2.47
2022-07-29T01:48:28.869Z,2.30
2022-07-29T01:51:15.728Z,2.20
2022-07-29T01:53:56.067Z,2.47
2022-07-29T01:56:25.295Z,2.42
2022-07-29T01:58:54.151Z,2.10
2022-07-29T02:01:24.152Z,2.10
2022-07-29T02:03:54.241Z,2.35
2022-07-29T02:06:24.031Z,2.42
2022-07-29T02:08:53.587Z,2.17
2022-07-29T02:11:20.689Z,2.28
2022-07-29T02:13:49.916Z,2.30
2022-07-29T02:16:19.115Z,2.60
2022-07-29T02:18:49.162Z,2.47
2022-07-29T02:21:24.863Z,2.42
2022-07-29T02:23:56.224Z,2.17
2022-07-29T02:26:25.526Z,2.40
2022-07-29T02:28:57.430Z,2.50
2022-07-29T02:31:27.937Z,2.38
2022-07-29T02:33:55.802Z,2.47
2022-07-29T02:36:24.774Z,2.50
2022-07-29T02:38:52.785Z,2.60
2022-07-29T02:41:36.568Z,2.25
2022-07-29T02:44:11.329Z,2.53
2022-07-29T02:46:43.972Z,2.38
2022-07-29T02:49:17.059Z,2.65
2022-07-29T02:51:56.716Z,2.58
2022-07-29T02:54:58.390Z,2.28
2022-07-29T02:57:54.763Z,2.38
2022-07-29T03:00:29.190Z,2.47
2022-07-29T03:03:00.808Z,2.72
2022-07-29T03:05:28.475Z,2.40
2022-07-29T03:08:16.101Z,2.22
2022-07-29T03:10:48.168Z,2.33
2022-07-29T03:13:16.382Z,2.53
2022-07-29T03:15:47.074Z,2.42
2022-07-29T03:18:18.181Z,2.60
2022-07-29T03:20:45.433Z,3.00
2022-07-29T03:23:12.392Z,2.55
2022-07-29T03:25:39.299Z,2.63
2022-07-29T03:28:06.167Z,2.83
2022-07-29T03:30:33.111Z,2.80
2022-07-29T03:32:59.996Z,2.88
2022-07-29T03:35:27.526Z,2.78
2022-07-29T03:37:54.436Z,2.58
2022-07-29T03:40:27.257Z,3.28
2022-07-29T03:45:24.057Z,2.50
2022-07-29T03:48:00.662Z,3.15
2022-07-29T03:50:30.269Z,2.75
2022-07-29T03:52:57.354Z,2.60
2022-07-29T03:55:25.682Z,2.90
2022-07-29T03:57:52.878Z,2.78
2022-07-29T04:00:20.544Z,3.00
2022-07-29T04:02:49.750Z,2.80
2022-07-29T04:05:19.673Z,3.10
2022-07-29T04:07:49.079Z,2.80
2022-07-29T04:10:18.059Z,2.90
2022-07-29T04:12:57.816Z,3.10
2022-07-29T04:15:24.781Z,3.25
2022-07-29T04:17:51.697Z,3.30
2022-07-29T04:20:19.500Z,2.72
2022-07-29T04:22:46.393Z,2.90
2022-07-29T04:25:13.279Z,3.30
2022-07-29T04:28:00.155Z,3.00
2022-07-29T04:30:27.432Z,3.30
2022-07-29T04:32:54.466Z,3.53
2022-07-29T04:35:21.548Z,3.00
2022-07-29T04:37:48.835Z,3.17
2022-07-29T04:40:17.043Z,3.10
2022-07-29T04:42:46.551Z,2.85
2022-07-29T04:45:15.282Z,3.38
2022-07-29T04:47:43.193Z,3.50
2022-07-29T04:50:11.248Z,3.25
2022-07-29T04:52:38.458Z,3.35
2022-07-29T04:55:07.645Z,3.40
2022-07-29T04:57:34.643Z,3.22
2022-07-29T05:00:02.006Z,3.20
2022-07-29T05:02:29.139Z,3.45
2022-07-29T05:04:56.065Z,3.10
2022-07-29T05:07:23.113Z,3.30
2022-07-29T05:09:50.198Z,3.45
2022-07-29T05:12:17.092Z,3.30
2022-07-29T05:14:46.439Z,3.28
2022-07-29T05:17:30.977Z,3.28
2022-07-29T05:19:57.967Z,3.05
2022-07-29T05:22:24.825Z,3.42
2022-07-29T05:24:51.728Z,3.03
2022-07-29T05:27:18.683Z,3.15
2022-07-29T05:29:45.989Z,3.28
2022-07-29T05:32:13.957Z,3.10
2022-07-29T05:34:51.160Z,3.20
2022-07-29T05:37:20.882Z,3.20
2022-07-29T05:39:50.457Z,3.35
2022-07-29T05:42:23.061Z,3.28
2022-07-29T05:44:50.009Z,3.30
2022-07-29T05:47:17.067Z,3.33
2022-07-29T05:49:44.018Z,3.53
2022-07-29T05:52:11.024Z,3.20
2022-07-29T05:54:37.915Z,3.17
2022-07-29T05:57:04.809Z,3.45
2022-07-29T05:59:38.116Z,3.08
2022-07-29T06:02:06.281Z,3.03
2022-07-29T06:04:34.519Z,3.30
2022-07-29T06:07:02.720Z,3.20
2022-07-29T06:09:30.286Z,3.20
2022-07-29T06:11:58.881Z,3.35
2022-07-29T06:14:27.645Z,3.28
2022-07-29T06:16:54.546Z,3.83
2022-07-29T06:19:21.727Z,3.55
2022-07-29T06:21:49.064Z,3.50
2022-07-29T06:24:17.160Z,3.17
2022-07-29T06:26:45.046Z,3.00
2022-07-29T06:29:12.610Z,3.35
2022-07-29T06:31:40.480Z,2.92
2022-07-29T06:34:08.260Z,2.70
2022-07-29T06:36:37.895Z,2.50
2022-07-29T06:39:08.314Z,2.50
2022-07-29T06:41:35.893Z,2.47
2022-07-29T06:44:03.371Z,2.33
2022-07-29T06:46:30.804Z,2.30
2022-07-29T06:48:58.407Z,2.30
2022-07-29T06:51:26.165Z,2.60
2022-07-29T06:53:59.565Z,2.45
2022-07-29T06:56:32.419Z,2.65
2022-07-29T06:59:07.279Z,2.67
2022-07-29T07:01:34.802Z,2.55
2022-07-29T07:04:02.299Z,2.60
2022-07-29T07:06:29.713Z,3.08
2022-07-29T07:08:57.263Z,2.80
2022-07-29T07:11:24.768Z,3.08
2022-07-29T07:13:52.388Z,2.47
2022-07-29T07:16:19.886Z,2.50
2022-07-29T07:18:47.289Z,2.60
2022-07-29T07:21:18.845Z,2.47
2022-07-29T07:23:47.111Z,2.85
2022-07-29T07:26:14.485Z,2.38
2022-07-29T07:28:41.804Z,2.40
2022-07-29T07:31:09.565Z,2.38
2022-07-29T07:33:36.895Z,2.38
2022-07-29T07:36:04.493Z,2.83
2022-07-29T07:38:31.898Z,2.83
2022-07-29T07:40:59.333Z,2.85
2022-07-29T07:43:26.655Z,2.75
2022-07-29T07:45:54.146Z,2.72
2022-07-29T07:48:21.975Z,2.75
2022-07-29T07:50:50.331Z,2.83
2022-07-29T07:53:17.920Z,2.42
2022-07-29T07:58:33.474Z,2.75
2022-07-29T08:01:00.847Z,3.00
2022-07-29T08:03:28.301Z,2.55
2022-07-29T08:05:55.824Z,2.60
2022-07-29T08:08:25.646Z,2.80
2022-07-29T08:10:53.031Z,2.90
2022-07-29T08:13:22.098Z,2.53
2022-07-29T08:15:58.511Z,2.42
2022-07-29T08:18:27.041Z,2.60
2022-07-29T08:20:54.718Z,2.75
2022-07-29T08:23:22.367Z,2.78
2022-07-29T08:25:50.508Z,2.92
2022-07-29T08:28:18.348Z,3.00
2022-07-29T08:30:45.871Z,2.75
2022-07-29T08:33:13.284Z,2.63
2022-07-29T08:35:41.137Z,2.80
2022-07-29T08:38:08.501Z,2.50
2022-07-29T08:40:35.905Z,2.75
2022-07-29T08:43:10.177Z,2.63
2022-07-29T08:45:51.540Z,2.60
2022-07-29T08:48:23.034Z,2.60
2022-07-29T08:50:56.712Z,2.53
2022-07-29T08:53:28.070Z,2.35
2022-07-29T08:55:56.173Z,2.42
2022-07-29T08:58:25.226Z,2.70
2022-07-29T09:00:57.886Z,2.50
2022-07-29T09:03:31.213Z,2.42
2022-07-29T09:06:00.381Z,3.00
2022-07-29T09:08:27.284Z,2.78
2022-07-29T09:10:54.589Z,3.20
2022-07-29T09:13:21.480Z,3.08
2022-07-29T09:15:48.476Z,2.70
2022-07-29T09:18:35.882Z,2.60
2022-07-29T09:21:23.399Z,3.20
2022-07-29T09:24:11.123Z,2.58
2022-07-29T09:26:42.191Z,2.67
2022-07-29T09:29:31.083Z,2.87
2022-07-29T09:32:00.300Z,2.53
2022-07-29T09:34:32.076Z,2.65
2022-07-29T09:36:59.263Z,2.28
2022-07-29T09:39:38.955Z,2.67
2022-07-29T09:42:07.164Z,2.60
2022-07-29T09:44:47.764Z,2.80
2022-07-29T09:47:15.169Z,2.88
2022-07-29T09:50:01.201Z,3.20
2022-07-29T09:52:29.685Z,2.30
2022-07-29T09:55:07.967Z,2.60
2022-07-29T09:57:35.083Z,2.50
2022-07-29T10:00:11.431Z,2.53
2022-07-29T10:02:41.410Z,2.17
2022-07-29T10:05:26.564Z,2.60
2022-07-29T10:07:57.432Z,2.60
2022-07-29T10:10:31.812Z,2.50
2022-07-29T10:13:07.174Z,2.45
2022-07-29T10:15:45.159Z,2.53
2022-07-29T10:18:14.620Z,2.92
2022-07-29T10:20:41.933Z,2.85
2022-07-29T10:23:10.717Z,2.53
2022-07-29T10:25:38.011Z,2.42
2022-07-29T10:28:06.841Z,3.08
2022-07-29T10:30:34.200Z,2.92
2022-07-29T10:33:15.770Z,2.60
2022-07-29T10:36:21.142Z,2.40
2022-07-29T10:39:44.695Z,2.40
2022-07-29T10:45:18.587Z,2.15
2022-07-29T10:47:46.468Z,2.40
2022-07-29T10:50:17.132Z,2.40
2022-07-29T10:52:57.217Z,2.50
2022-07-29T10:55:39.306Z,2.00
2022-07-29T10:58:24.701Z,2.10
2022-07-29T11:00:56.372Z,2.60
2022-07-29T11:03:53.790Z,2.40
2022-07-29T11:06:28.252Z,1.90
2022-07-29T11:09:35.109Z,2.50
2022-07-29T11:12:37.436Z,2.08
2022-07-29T11:15:09.517Z,1.80
2022-07-29T11:17:54.643Z,2.00
2022-07-29T11:20:51.183Z,2.15
2022-07-29T11:23:27.860Z,1.95
2022-07-29T11:29:07.355Z,2.08
2022-07-29T11:31:42.930Z,2.20
2022-07-29T11:34:33.188Z,2.08
2022-07-29T11:37:08.080Z,2.03
2022-07-29T11:40:01.559Z,1.90
2022-07-29T11:42:32.744Z,2.00
2022-07-29T11:45:43.189Z,1.98
2022-07-29T11:48:31.800Z,1.92
2022-07-29T11:50:54.289Z,1.92
2022-07-29T11:53:22.169Z,1.98
2022-07-29T11:55:56.482Z,2.22
2022-07-29T11:58:27.232Z,1.77
2022-07-29T12:00:55.380Z,2.15
2022-07-29T12:07:03.750Z,1.50
2022-07-29T12:08:45.743Z,1.90
2022-07-29T12:11:22.374Z,2.13
2022-07-29T12:13:52.108Z,1.60
2022-07-29T12:16:26.080Z,1.90
2022-07-29T12:19:02.352Z,2.08
2022-07-29T12:21:52.224Z,1.85
2022-07-29T12:24:26.925Z,1.80
2022-07-29T12:27:02.331Z,2.00
2022-07-29T12:29:33.921Z,1.70
2022-07-29T12:32:14.281Z,1.90
2022-07-29T12:34:42.123Z,2.22
2022-07-29T12:37:11.176Z,2.38
2022-07-29T12:39:38.302Z,2.20
2022-07-29T12:42:18.414Z,2.15
2022-07-29T12:44:50.456Z,2.30
2022-07-29T12:47:19.089Z,2.20
2022-07-29T12:49:47.799Z,1.92
2022-07-29T12:52:31.955Z,2.00
2022-07-29T12:54:59.233Z,2.00
2022-07-29T12:57:27.130Z,1.90
2022-07-29T13:00:05.571Z,2.50
2022-07-29T13:02:32.711Z,2.33
2022-07-29T13:05:01.317Z,2.47
2022-07-29T13:07:55.627Z,2.28
2022-07-29T13:10:24.152Z,2.15
2022-07-29T13:13:06.598Z,2.30
2022-07-29T13:15:35.044Z,2.40
2022-07-29T13:18:02.093Z,2.15
2022-07-29T13:20:30.703Z,2.15
2022-07-29T13:23:01.947Z,2.33
2022-07-29T13:25:33.133Z,2.15
2022-07-29T13:28:00.900Z,2.42
2022-07-29T13:30:27.914Z,2.63
2022-07-29T13:32:56.132Z,2.70
2022-07-29T13:35:23.028Z,2.72
2022-07-29T13:37:49.968Z,2.47
2022-07-29T13:40:19.086Z,2.30
2022-07-29T13:42:46.015Z,2.30
2022-07-29T13:45:13.882Z,2.35
2022-07-29T13:47:43.604Z,2.80
2022-07-29T13:50:14.665Z,2.88
2022-07-29T13:52:41.656Z,2.30
2022-07-29T13:55:09.448Z,2.30
2022-07-29T13:57:36.570Z,2.53
2022-07-29T14:00:04.076Z,2.65
2022-07-29T14:02:30.963Z,3.00
2022-07-29T14:04:57.941Z,2.55
2022-07-29T14:07:24.846Z,2.70
2022-07-29T14:09:51.980Z,2.53
2022-07-29T14:12:19.040Z,2.10
2022-07-29T14:14:47.162Z,2.05
2022-07-29T14:17:15.066Z,2.50
2022-07-29T14:19:42.262Z,2.50
2022-07-29T14:22:09.940Z,2.55
2022-07-29T14:24:38.629Z,2.25
2022-07-29T14:27:09.385Z,2.50
2022-07-29T14:29:38.654Z,2.20
2022-07-29T14:32:08.301Z,2.15
2022-07-29T14:34:37.297Z,2.47
2022-07-29T14:37:06.577Z,2.60
2022-07-29T14:39:42.077Z,2.30
2022-07-29T14:42:12.438Z,2.20
2022-07-29T14:44:40.772Z,2.40
2022-07-29T14:47:08.473Z,2.33
2022-07-29T14:49:36.251Z,2.30
2022-07-29T14:52:03.769Z,2.17
2022-07-29T14:54:30.649Z,2.15
2022-07-29T14:56:58.461Z,2.20
2022-07-29T14:59:27.153Z,2.60
2022-07-29T15:01:54.289Z,2.65
2022-07-29T15:04:21.365Z,2.35
2022-07-29T15:06:48.835Z,2.75
2022-07-29T15:09:15.741Z,2.40
2022-07-29T15:11:42.766Z,2.35
2022-07-29T15:14:09.668Z,2.35
2022-07-29T15:16:39.263Z,2.28
2022-07-29T15:21:47.958Z,2.67
2022-07-29T15:24:15.234Z,2.20
2022-07-29T15:26:43.447Z,2.80
2022-07-29T15:29:10.553Z,3.70
2022-07-29T15:31:37.535Z,3.00
2022-07-29T15:34:06.027Z,2.38
2022-07-29T15:36:51.473Z,2.50
2022-07-29T15:39:20.931Z,3.58
2022-07-29T15:41:47.942Z,2.58
2022-07-29T15:44:15.071Z,1.90
2022-07-29T15:47:01.433Z,2.75
2022-07-29T15:49:47.945Z,2.40
2022-07-29T15:52:26.270Z,2.30
2022-07-29T15:54:55.875Z,2.15
2022-07-29T15:57:24.482Z,2.28
2022-07-29T15:59:52.120Z,2.17
2022-07-29T16:02:19.314Z,2.10
2022-07-29T16:04:46.470Z,2.60
2022-07-29T16:07:14.159Z,2.13
2022-07-29T16:09:42.236Z,2.35
2022-07-29T16:12:14.744Z,2.15
2022-07-29T16:14:45.326Z,2.05
2022-07-29T16:17:14.913Z,2.03
2022-07-29T16:19:43.413Z,2.30
2022-07-29T16:22:11.568Z,2.45
2022-07-29T16:24:39.174Z,2.08
2022-07-29T16:27:06.508Z,2.03
2022-07-29T16:29:33.584Z,2.55
2022-07-29T16:32:01.317Z,2.38
2022-07-29T16:34:28.479Z,2.03
2022-07-29T16:36:55.360Z,2.30
2022-07-29T16:39:22.274Z,2.10
2022-07-29T16:41:49.253Z,2.25
2022-07-29T16:44:16.202Z,2.22
2022-07-29T16:46:45.256Z,2.50
2022-07-29T16:49:12.698Z,2.13
2022-07-29T16:51:47.720Z,2.25
2022-07-29T16:54:14.812Z,2.25
2022-07-29T16:56:41.859Z,1.85
2022-07-29T16:59:08.756Z,2.10
2022-07-29T17:01:35.815Z,2.50
2022-07-29T17:04:08.683Z,2.28
2022-07-29T17:06:40.245Z,2.45
2022-07-29T17:09:09.512Z,2.17
2022-07-29T17:11:51.615Z,2.38
2022-07-29T17:14:26.931Z,2.10
2022-07-29T17:17:02.670Z,2.20
2022-07-29T17:19:35.579Z,2.25
2022-07-29T17:22:10.475Z,2.10
2022-07-29T17:24:41.740Z,2.20
2022-07-29T17:27:10.147Z,2.50
2022-07-29T17:29:38.716Z,2.35
2022-07-29T17:32:07.689Z,2.58
2022-07-29T17:34:37.025Z,2.60
2022-07-29T17:37:06.063Z,2.38
2022-07-29T17:39:35.222Z,2.30
2022-07-29T17:42:04.630Z,2.47
2022-07-29T17:44:32.410Z,2.40
2022-07-29T17:47:05.037Z,1.95
2022-07-29T17:49:32.546Z,1.90
2022-07-29T17:52:01.066Z,2.10
2022-07-29T17:54:28.326Z,2.00
2022-07-29T17:56:55.588Z,2.40
2022-07-29T17:59:22.649Z,2.17
2022-07-29T18:01:49.561Z,1.90
2022-07-29T18:04:20.226Z,2.22
2022-07-29T18:06:47.126Z,2.53
2022-07-29T18:09:14.074Z,2.05
2022-07-29T18:11:41.035Z,2.20
2022-07-29T18:14:11.435Z,2.20
2022-07-29T18:16:38.465Z,2.45
2022-07-29T18:19:05.743Z,2.08
2022-07-29T18:21:45.867Z,1.88
2022-07-29T18:24:19.534Z,2.65
2022-07-29T18:26:46.420Z,1.90
2022-07-29T18:29:13.300Z,1.98
2022-07-29T18:31:41.139Z,2.05
2022-07-29T18:34:08.216Z,2.17
2022-07-29T18:36:35.600Z,2.08
2022-07-29T18:39:23.848Z,1.77
2022-07-29T18:41:54.062Z,2.00
2022-07-29T18:44:21.946Z,2.00
2022-07-29T18:46:53.536Z,2.58
2022-07-29T18:49:22.053Z,2.00
2022-07-29T18:51:50.597Z,2.20
2022-07-29T18:54:23.514Z,2.15
2022-07-29T18:56:50.404Z,2.30
2022-07-29T18:59:19.706Z,2.33
2022-07-29T19:01:49.154Z,2.45
2022-07-29T19:04:17.349Z,3.25
2022-07-29T19:06:44.659Z,2.85
2022-07-29T19:09:11.629Z,2.70
2022-07-29T19:11:39.100Z,2.75
2022-07-29T19:14:06.866Z,2.70
2022-07-29T19:16:34.021Z,2.60
2022-07-29T19:19:01.101Z,2.80
2022-07-29T19:21:28.734Z,2.45
2022-07-29T19:24:06.438Z,2.90
2022-07-29T19:26:36.713Z,2.58
2022-07-29T19:29:04.643Z,2.80
2022-07-29T19:31:31.691Z,2.70
2022-07-29T19:33:58.670Z,2.60
2022-07-29T19:36:27.219Z,2.88
2022-07-29T19:38:54.096Z,2.60
2022-07-29T19:41:20.970Z,2.80
2022-07-29T19:43:51.084Z,3.15
2022-07-29T19:46:21.133Z,3.30
2022-07-29T19:48:48.387Z,2.97
2022-07-29T19:51:15.310Z,3.20
2022-07-29T19:53:42.364Z,3.25
2022-07-29T19:56:09.450Z,3.65
2022-07-29T19:58:36.589Z,3.50
2022-07-29T20:01:09.966Z,3.60
2022-07-29T20:03:40.031Z,3.95
2022-07-29T20:06:07.823Z,3.50
2022-07-29T20:08:34.933Z,3.22
2022-07-29T20:11:02.872Z,3.38
2022-07-29T20:13:33.003Z,3.13
2022-07-29T20:16:01.958Z,3.47
2022-07-29T20:18:29.228Z,3.35
2022-07-29T20:20:57.634Z,3.20
2022-07-29T20:23:24.677Z,3.55
2022-07-29T20:25:51.808Z,3.60
2022-07-29T20:28:18.904Z,3.58
2022-07-29T20:30:47.538Z,3.28
2022-07-29T20:33:15.019Z,3.53
2022-07-29T20:35:42.098Z,3.40
2022-07-29T20:38:08.979Z,3.70
2022-07-29T20:40:36.008Z,3.40
2022-07-29T20:43:02.888Z,3.70
2022-07-29T20:45:29.859Z,3.90
2022-07-29T20:47:56.780Z,3.72
2022-07-29T20:50:24.579Z,4.00
2022-07-29T20:52:52.579Z,3.85
2022-07-29T20:55:19.584Z,3.80
2022-07-29T20:57:46.484Z,4.10
2022-07-29T21:00:14.162Z,4.15
2022-07-29T21:02:42.054Z,3.83
2022-07-29T21:05:09.604Z,4.00
2022-07-29T21:07:36.660Z,4.00
2022-07-29T21:10:04.277Z,4.30
2022-07-29T21:12:31.166Z,4.22
2022-07-29T21:14:58.086Z,4.03
2022-07-29T21:17:25.228Z,4.20
2022-07-29T21:19:53.320Z,4.30
2022-07-29T21:22:22.321Z,4.72
2022-07-29T21:24:50.453Z,4.03
2022-07-29T21:27:38.495Z,4.07
2022-07-29T21:30:08.263Z,3.97
2022-07-29T21:32:35.414Z,4.82
2022-07-29T21:35:03.097Z,4.70
2022-07-29T21:37:42.194Z,4.47
2022-07-29T21:40:10.134Z,5.43
2022-07-29T21:42:37.089Z,4.78
2022-07-29T21:45:06.214Z,4.82
2022-07-29T21:47:33.419Z,4.80
2022-07-29T21:50:00.274Z,4.63
2022-07-29T21:52:28.223Z,5.05
2022-07-29T21:54:55.765Z,4.65
2022-07-29T21:57:23.207Z,4.53
2022-07-29T21:59:50.091Z,5.05
2022-07-29T22:02:16.933Z,4.93
2022-07-29T22:04:43.932Z,5.53
2022-07-29T22:07:10.813Z,5.20
2022-07-29T22:09:37.688Z,5.03
2022-07-29T22:12:05.071Z,5.50
2022-07-29T22:14:32.080Z,5.35
2022-07-29T22:17:00.067Z,4.95
2022-07-29T22:19:27.334Z,4.93
2022-07-29T22:21:54.606Z,5.35
2022-07-29T22:24:21.550Z,5.32
2022-07-29T22:26:48.546Z,5.50
2022-07-29T22:29:17.660Z,5.10
2022-07-29T22:31:44.958Z,5.88
2022-07-29T22:34:13.397Z,5.95
2022-07-29T22:36:41.139Z,4.85
2022-07-29T22:39:08.089Z,5.35
2022-07-29T22:41:35.458Z,5.20
2022-07-29T22:44:02.712Z,5.35
2022-07-29T22:46:29.844Z,5.45
2022-07-29T22:48:58.131Z,6.10
2022-07-29T22:51:25.333Z,5.30
2022-07-29T22:53:52.489Z,5.55
2022-07-29T22:56:20.623Z,5.00
2022-07-29T22:58:48.951Z,5.72
2022-07-29T23:01:17.254Z,4.95
2022-07-29T23:04:06.439Z,5.18
2022-07-29T23:06:33.890Z,5.40
2022-07-29T23:09:00.770Z,5.00
2022-07-29T23:11:27.829Z,5.40
2022-07-29T23:13:54.697Z,5.78
2022-07-29T23:16:26.659Z,5.93
2022-07-29T23:18:54.760Z,5.28
2022-07-29T23:21:21.754Z,5.10
2022-07-29T23:23:49.279Z,5.55
2022-07-29T23:26:17.004Z,5.43
2022-07-29T23:28:44.981Z,5.55
2022-07-29T23:31:13.396Z,6.00
2022-07-29T23:33:41.881Z,5.60
2022-07-29T23:36:08.934Z,5.47
2022-07-29T23:38:40.774Z,5.57
2022-07-29T23:41:09.827Z,5.30
2022-07-29T23:43:38.010Z,5.90
2022-07-29T23:46:05.287Z,5.60
2022-07-29T23:48:33.540Z,5.20
2022-07-29T23:51:01.188Z,5.30
2022-07-29T23:53:28.815Z,5.90
2022-07-29T23:55:56.542Z,5.72
2022-07-29T23:58:23.700Z,5.55
